Time;durP1;ratioP1;P1;durP2;ratioP2;P2;SDS_P1;SDS_P2;PMS_P1;PMS_P2;Temp;Humidity;BMP_temperature;BMP_pressure;BME280_temperature;BME280_humidity;BME280_pressure;Samples;Min_cycle;Max_cycle;Signal;HPM_P1;HPM_P2
2022/02/02 00:02:09;;;;;;;7.30;3.80;;;5.20;99.70;;;;;;5071739;28;20495;-65
2022/02/02 00:04:42;;;;;;;8.80;4.20;;;5.20;99.70;;;;;;5071533;28;20528;-65
2022/02/02 00:07:21;;;;;;;6.80;3.90;;;5.30;99.70;;;;;;5071424;28;20459;-65
2022/02/02 00:09:53;;;;;;;8.27;3.80;;;5.40;99.70;;;;;;5071228;28;20500;-65
2022/02/02 00:12:34;;;;;;;8.97;4.53;;;5.40;99.70;;;;;;5071363;28;20579;-65
2022/02/02 00:15:18;;;;;;;10.17;4.03;;;5.40;99.70;;;;;;5071254;28;20442;-66
2022/02/02 00:17:51;;;;;;;10.83;4.23;;;5.40;99.70;;;;;;5071227;28;20449;-65
2022/02/02 00:20:25;;;;;;;9.67;4.70;;;5.50;99.70;;;;;;5071378;28;20587;-64
2022/02/02 00:22:55;;;;;;;9.03;4.63;;;5.50;99.70;;;;;;5071344;28;20447;-65
2022/02/02 00:25:29;;;;;;;8.67;4.30;;;5.50;99.70;;;;;;5071550;28;20897;-65
2022/02/02 00:27:58;;;;;;;10.17;4.87;;;5.40;99.70;;;;;;5070753;28;20478;-65
2022/02/02 00:30:30;;;;;;;11.80;5.23;;;5.40;99.70;;;;;;5071191;28;20947;-65
2022/02/02 00:33:07;;;;;;;9.63;4.67;;;5.50;99.70;;;;;;5072928;28;20930;-65
2022/02/02 00:35:39;;;;;;;11.87;5.10;;;5.50;99.70;;;;;;5075227;28;20470;-66
2022/02/02 00:38:05;;;;;;;10.80;5.10;;;5.50;99.70;;;;;;5074874;28;20445;-65
2022/02/02 00:40:34;;;;;;;21.40;7.30;;;5.40;99.70;;;;;;5075214;28;20503;-65
2022/02/02 00:43:00;;;;;;;16.03;4.93;;;5.50;99.70;;;;;;5075063;28;20443;-65
2022/02/02 00:45:32;;;;;;;11.60;5.10;;;5.50;99.70;;;;;;5074878;28;21019;-65
2022/02/02 00:48:01;;;;;;;8.23;4.60;;;5.50;99.70;;;;;;5074566;28;20565;-65
2022/02/02 00:50:28;;;;;;;10.13;4.00;;;5.50;99.70;;;;;;5075046;28;20465;-65
2022/02/02 00:52:56;;;;;;;7.27;3.77;;;5.50;99.70;;;;;;5074889;28;20537;-65
2022/02/02 00:55:23;;;;;;;10.47;3.43;;;5.60;99.70;;;;;;5074615;28;20514;-65
2022/02/02 00:57:51;;;;;;;11.40;3.30;;;5.60;99.70;;;;;;5074502;28;20442;-64
2022/02/02 01:00:19;;;;;;;8.00;3.40;;;5.60;99.70;;;;;;5074847;28;20504;-65
2022/02/02 01:02:46;;;;;;;7.87;3.30;;;5.70;99.70;;;;;;5074717;28;20447;-65
2022/02/02 01:05:13;;;;;;;6.70;3.17;;;5.70;99.70;;;;;;5074636;28;20459;-65
2022/02/02 01:08:10;;;;;;;8.40;3.00;;;5.70;99.70;;;;;;5074547;28;20441;-62
2022/02/02 01:10:41;;;;;;;7.60;3.10;;;5.80;99.70;;;;;;5074495;28;20447;-65
2022/02/02 01:13:34;;;;;;;6.60;3.10;;;5.80;99.70;;;;;;5074562;28;20457;-65
2022/02/02 01:16:55;;;;;;;7.07;2.80;;;5.80;99.70;;;;;;5074411;28;20466;-65
2022/02/02 01:19:14;;;;;;;6.17;2.80;;;5.80;99.70;;;;;;5073976;28;20441;-65
2022/02/02 01:21:56;;;;;;;5.40;2.90;;;5.80;99.70;;;;;;5074402;28;20446;-65
2022/02/02 01:29:53;;;;;;;5.47;2.60;;;5.80;99.70;;;;;;5073919;28;20613;-65
2022/02/02 01:32:20;;;;;;;5.40;2.80;;;6.00;99.70;;;;;;5074259;28;20439;-64
2022/02/02 01:34:46;;;;;;;7.03;2.83;;;6.00;99.70;;;;;;5074127;28;20497;-65
2022/02/02 01:37:16;;;;;;;6.33;3.20;;;6.10;99.70;;;;;;5073972;28;20473;-65
2022/02/02 01:39:43;;;;;;;6.17;2.93;;;6.10;99.70;;;;;;5073888;28;20450;-65
2022/02/02 01:42:14;;;;;;;4.47;2.57;;;6.10;99.70;;;;;;5074021;28;20439;-65
2022/02/02 01:44:47;;;;;;;6.60;2.80;;;6.20;99.70;;;;;;5072378;28;20474;-64
2022/02/02 01:47:16;;;;;;;5.87;2.60;;;6.30;99.70;;;;;;5073960;28;20497;-65
2022/02/02 01:50:09;;;;;;;8.30;2.57;;;6.20;99.70;;;;;;5073456;28;20500;-65
2022/02/02 01:52:53;;;;;;;6.20;2.77;;;6.20;99.70;;;;;;5073819;28;20454;-65
2022/02/02 01:55:29;;;;;;;7.90;2.30;;;6.20;99.70;;;;;;5073623;28;20521;-65
2022/02/02 01:58:04;;;;;;;6.20;2.60;;;6.20;99.70;;;;;;5073285;28;20800;-66
2022/02/02 02:00:31;;;;;;;6.13;2.97;;;6.30;99.70;;;;;;5073852;28;20481;-65
2022/02/02 02:03:02;;;;;;;6.00;2.40;;;6.20;99.70;;;;;;5073684;28;20442;-66
2022/02/02 02:05:28;;;;;;;6.47;2.97;;;6.20;99.70;;;;;;5073790;28;20471;-65
2022/02/02 02:07:55;;;;;;;6.53;2.70;;;6.30;99.70;;;;;;5073117;28;20443;-65
2022/02/02 02:10:23;;;;;;;7.33;2.57;;;6.30;99.70;;;;;;5073508;28;20516;-65
2022/02/02 02:12:54;;;;;;;5.07;2.53;;;6.30;99.70;;;;;;5073620;28;20442;-65
2022/02/02 02:15:26;;;;;;;4.90;2.53;;;6.20;99.70;;;;;;5073337;28;20887;-65
2022/02/02 02:17:52;;;;;;;7.43;2.80;;;6.20;99.70;;;;;;5073090;28;20496;-65
2022/02/02 02:20:20;;;;;;;11.63;3.20;;;6.40;99.70;;;;;;5073473;28;20558;-65
2022/02/02 02:22:48;;;;;;;7.30;2.77;;;6.40;99.70;;;;;;5073274;28;20442;-65
2022/02/02 02:25:23;;;;;;;6.83;2.80;;;6.40;99.70;;;;;;5073057;28;20473;-65
2022/02/02 02:27:52;;;;;;;9.00;2.90;;;6.40;99.70;;;;;;5072659;28;20443;-64
2022/02/02 02:30:27;;;;;;;7.60;2.80;;;6.40;99.70;;;;;;5073326;28;20439;-65
2022/02/02 02:33:29;;;;;;;10.07;3.27;;;6.40;99.70;;;;;;5073053;28;20443;-65
2022/02/02 02:36:33;;;;;;;11.97;3.30;;;6.50;99.70;;;;;;5072907;28;20462;-65
2022/02/02 02:39:26;;;;;;;8.50;3.33;;;6.50;99.70;;;;;;5072300;28;20441;-65
2022/02/02 02:55:52;;;;;;;10.93;4.00;;;6.30;99.70;;;;;;5072217;28;20907;-65
2022/02/02 02:58:41;;;;;;;9.97;3.80;;;6.30;99.70;;;;;;5072224;28;20468;-65
2022/02/02 03:01:22;;;;;;;14.23;4.30;;;6.40;99.70;;;;;;5072312;28;20514;-65
2022/02/02 03:31:28;;;;;;;21.17;4.87;;;6.90;99.70;;;;;;5072115;28;20425;-65
2022/02/02 03:53:58;;;;;;;11.60;4.10;;;7.00;99.70;;;;;;5071567;28;20784;-65
2022/02/02 03:56:34;;;;;;;10.77;3.50;;;6.90;99.70;;;;;;5071542;28;21043;-65
2022/02/02 03:59:25;;;;;;;12.20;3.90;;;6.90;99.70;;;;;;5071162;28;20461;-65
2022/02/02 04:02:12;;;;;;;11.17;3.77;;;6.80;99.70;;;;;;5071587;28;20832;-65
2022/02/02 04:04:46;;;;;;;16.00;3.57;;;6.90;99.70;;;;;;5071627;28;20446;-65
2022/02/02 04:07:19;;;;;;;10.83;3.50;;;6.80;99.70;;;;;;5070892;28;20515;-65
2022/02/02 04:09:47;;;;;;;17.80;3.80;;;6.80;99.70;;;;;;5071003;28;20488;-65
2022/02/02 04:12:24;;;;;;;11.57;3.43;;;6.80;99.70;;;;;;5071391;28;20529;-65
2022/02/02 04:15:56;;;;;;;11.93;3.27;;;6.80;99.70;;;;;;5071403;28;20450;-65
2022/02/02 04:56:38;;;;;;;15.40;4.00;;;6.90;99.70;;;;;;5102391;22;20490;-66
2022/02/02 04:59:15;;;;;;;13.00;3.40;;;6.90;99.70;;;;;;5069735;28;21089;-66
2022/02/02 05:07:25;;;;;;;8.87;3.30;;;6.80;99.70;;;;;;5044510;28;20449;-66
2022/02/02 05:10:00;;;;;;;15.37;4.40;;;6.90;99.70;;;;;;5070101;28;20483;-66
2022/02/02 05:13:17;;;;;;;14.23;3.30;;;7.00;99.70;;;;;;5070382;28;20537;-66
2022/02/02 05:18:29;;;;;;;10.50;3.50;;;6.90;99.70;;;;;;5069473;28;20517;-67
2022/02/02 05:21:31;;;;;;;12.53;3.57;;;6.90;99.70;;;;;;5074258;28;20534;-66
2022/02/02 05:25:07;;;;;;;14.00;3.60;;;6.90;99.70;;;;;;5074164;28;20528;-65
2022/02/02 05:41:26;;;;;;;9.23;3.83;;;6.90;99.70;;;;;;5073820;28;20430;-66
2022/02/02 05:44:14;;;;;;;10.93;3.67;;;6.90;99.70;;;;;;5073536;28;20534;-67
2022/02/02 05:49:48;;;;;;;12.50;3.20;;;6.90;99.70;;;;;;5073202;28;20490;-66
2022/02/02 05:52:14;;;;;;;11.00;4.03;;;6.80;99.70;;;;;;5070098;28;20450;-66
2022/02/02 05:54:41;;;;;;;11.60;4.07;;;6.80;99.70;;;;;;5067140;28;20462;-66
2022/02/02 05:57:13;;;;;;;10.63;3.27;;;6.80;99.70;;;;;;5073821;28;20482;-65
2022/02/02 05:59:41;;;;;;;10.50;3.40;;;6.80;99.70;;;;;;5066014;28;20459;-66
2022/02/02 06:02:12;;;;;;;12.90;3.70;;;6.80;99.70;;;;;;5069254;28;20474;-65
2022/02/02 06:04:44;;;;;;;12.83;4.07;;;6.80;99.70;;;;;;5061744;28;20470;-66
2022/02/02 06:07:11;;;;;;;12.27;3.87;;;6.70;99.70;;;;;;5069890;28;20479;-65
2022/02/02 06:09:42;;;;;;;11.60;3.50;;;6.70;99.70;;;;;;5071942;28;20507;-64
2022/02/02 06:12:11;;;;;;;12.37;3.30;;;6.70;99.70;;;;;;5072638;28;20439;-64
2022/02/02 06:14:39;;;;;;;14.07;3.50;;;6.70;99.70;;;;;;5069223;28;20480;-65
2022/02/02 06:17:08;;;;;;;12.20;3.63;;;6.80;99.70;;;;;;5070698;28;20467;-65
2022/02/02 06:19:35;;;;;;;17.20;3.53;;;6.80;99.70;;;;;;5069489;28;20539;-65
2022/02/02 06:22:10;;;;;;;13.47;3.63;;;6.80;99.70;;;;;;5070097;28;20961;-65
2022/02/02 06:24:45;;;;;;;13.53;3.00;;;6.90;99.70;;;;;;5070528;28;20485;-65
2022/02/02 06:27:20;;;;;;;17.37;3.70;;;6.90;99.70;;;;;;5070945;28;20517;-65
2022/02/02 06:29:50;;;;;;;9.63;3.17;;;6.90;99.70;;;;;;5069173;28;20862;-65
2022/02/02 06:32:17;;;;;;;11.27;3.50;;;6.90;99.70;;;;;;5071951;28;20450;-65
2022/02/02 06:34:46;;;;;;;13.60;4.10;;;7.00;99.70;;;;;;5072382;28;20442;-65
2022/02/02 06:37:13;;;;;;;13.90;3.17;;;7.00;99.70;;;;;;5072380;28;20463;-65
2022/02/02 06:39:40;;;;;;;10.93;3.20;;;7.00;99.70;;;;;;5071782;28;20818;-65
2022/02/02 06:42:09;;;;;;;15.33;3.57;;;7.00;99.70;;;;;;5072624;28;20446;-65
2022/02/02 06:44:40;;;;;;;14.23;3.40;;;7.10;99.70;;;;;;5072264;28;20451;-65
2022/02/02 06:47:07;;;;;;;12.07;3.80;;;7.00;99.70;;;;;;5072202;28;20459;-65
2022/02/02 06:49:35;;;;;;;19.40;4.60;;;7.00;99.70;;;;;;5071625;28;20474;-66
2022/02/02 06:52:08;;;;;;;14.20;3.80;;;7.00;99.70;;;;;;5072176;28;20451;-66
2022/02/02 06:54:49;;;;;;;12.23;3.90;;;7.00;99.70;;;;;;5072173;28;20447;-66
2022/02/02 06:57:23;;;;;;;11.70;4.53;;;7.00;99.70;;;;;;5072219;28;20478;-66
2022/02/02 07:00:03;;;;;;;12.37;3.37;;;7.00;99.70;;;;;;5071679;28;20639;-66
2022/02/02 07:02:44;;;;;;;11.63;4.00;;;7.00;99.70;;;;;;5072253;28;20454;-65
2022/02/02 07:05:29;;;;;;;15.57;4.60;;;7.00;99.70;;;;;;5072123;28;20537;-65
2022/02/02 07:08:17;;;;;;;12.47;3.87;;;7.10;99.70;;;;;;5071038;28;20446;-66
2022/02/02 07:11:03;;;;;;;14.23;4.13;;;7.00;99.70;;;;;;5071696;28;20474;-66
2022/02/02 07:13:42;;;;;;;13.30;4.03;;;7.00;99.70;;;;;;5069774;28;20486;-65
2022/02/02 07:16:23;;;;;;;22.97;8.80;;;6.90;99.70;;;;;;5070217;28;20493;-65
2022/02/02 07:19:04;;;;;;;12.87;4.00;;;7.00;99.70;;;;;;5069764;28;20946;-65
2022/02/02 07:21:49;;;;;;;17.77;4.90;;;7.00;99.70;;;;;;5071307;28;20450;-64
2022/02/02 07:27:31;;;;;;;11.17;3.57;;;7.00;99.70;;;;;;5029209;28;20461;-65
2022/02/02 07:30:08;;;;;;;13.47;3.93;;;7.10;99.70;;;;;;5070580;28;20562;-65
2022/02/02 07:32:42;;;;;;;12.53;3.60;;;7.10;99.70;;;;;;5059523;28;20519;-64
2022/02/02 07:35:14;;;;;;;12.93;4.40;;;7.00;99.70;;;;;;5071007;28;20443;-65
2022/02/02 07:37:46;;;;;;;15.87;4.20;;;7.00;99.70;;;;;;5070662;28;20849;-65
2022/02/02 07:40:14;;;;;;;14.93;5.13;;;7.00;99.70;;;;;;5070990;28;20442;-65
2022/02/02 07:42:45;;;;;;;11.70;4.53;;;7.00;99.70;;;;;;5070064;28;20443;-64
2022/02/02 07:45:12;;;;;;;10.30;4.10;;;7.10;99.70;;;;;;5070638;28;20450;-68
2022/02/02 07:47:42;;;;;;;12.87;4.40;;;7.00;99.70;;;;;;5070031;28;20463;-65
2022/02/02 07:50:11;;;;;;;13.33;3.40;;;7.10;99.70;;;;;;5070454;28;20490;-65
2022/02/02 07:52:38;;;;;;;11.40;3.80;;;7.10;99.70;;;;;;5070824;28;20486;-65
2022/02/02 07:55:07;;;;;;;16.60;4.20;;;7.10;99.70;;;;;;5070792;28;20442;-65
2022/02/02 07:57:35;;;;;;;18.17;4.77;;;7.10;99.70;;;;;;5058820;28;20485;-63
2022/02/02 08:00:08;;;;;;;17.70;6.10;;;7.10;99.70;;;;;;5070188;28;20884;-64
2022/02/02 08:02:48;;;;;;;17.37;4.70;;;7.10;99.70;;;;;;5058897;28;20451;-64
2022/02/02 08:05:18;;;;;;;13.40;4.23;;;7.00;99.70;;;;;;5070473;28;20541;-64
2022/02/02 08:07:51;;;;;;;17.77;4.87;;;6.90;99.70;;;;;;5070579;28;20471;-64
2022/02/02 08:10:20;;;;;;;16.97;3.97;;;6.90;99.70;;;;;;5069474;28;20482;-65
2022/02/02 08:12:50;;;;;;;16.20;4.37;;;6.90;99.70;;;;;;5070263;28;20443;-64
2022/02/02 08:15:20;;;;;;;12.33;4.70;;;6.90;99.70;;;;;;5070441;28;20454;-66
2022/02/02 08:17:48;;;;;;;13.80;4.50;;;6.90;99.70;;;;;;5069756;28;20451;-63
2022/02/02 08:20:17;;;;;;;12.50;4.00;;;6.90;99.70;;;;;;5069619;28;20434;-65
2022/02/02 08:22:44;;;;;;;11.43;3.97;;;6.90;99.70;;;;;;5070662;28;20957;-64
2022/02/02 08:25:18;;;;;;;12.67;4.50;;;6.90;99.70;;;;;;5070716;28;20446;-64
2022/02/02 08:27:48;;;;;;;16.93;4.53;;;6.90;99.70;;;;;;5070641;28;20951;-64
2022/02/02 08:30:16;;;;;;;18.70;4.70;;;6.90;99.70;;;;;;5070350;28;20544;-64
2022/02/02 08:32:47;;;;;;;10.30;4.00;;;6.90;99.70;;;;;;5070899;28;20500;-65
2022/02/02 08:35:15;;;;;;;12.83;4.30;;;7.00;99.70;;;;;;5070378;28;21019;-64
2022/02/02 08:37:46;;;;;;;13.57;5.77;;;7.00;99.70;;;;;;5070286;28;20475;-62
2022/02/02 08:40:24;;;;;;;19.40;4.80;;;7.00;99.70;;;;;;5070179;28;20471;-64
2022/02/02 08:42:52;;;;;;;13.53;4.40;;;7.10;99.70;;;;;;5070706;28;20529;-64
2022/02/02 08:45:23;;;;;;;15.20;4.80;;;7.00;99.70;;;;;;5070416;28;20489;-62
2022/02/02 08:47:55;;;;;;;15.63;3.90;;;7.00;99.70;;;;;;5070308;28;20537;-63
2022/02/02 08:50:30;;;;;;;12.27;4.40;;;6.90;99.70;;;;;;5070351;28;20486;-67
2022/02/02 08:53:03;;;;;;;17.77;5.10;;;6.90;99.70;;;;;;5070542;28;20953;-66
2022/02/02 08:55:57;;;;;;;11.47;4.57;;;6.80;99.70;;;;;;5074335;28;20446;-64
2022/02/02 08:58:31;;;;;;;14.60;5.00;;;6.70;99.70;;;;;;5074069;28;20583;-64
2022/02/02 09:00:59;;;;;;;13.00;5.20;;;6.60;99.70;;;;;;5074068;28;20442;-64
2022/02/02 09:06:15;;;;;;;20.43;5.00;;;6.60;99.70;;;;;;5039886;28;20528;-67
2022/02/02 09:08:44;;;;;;;19.23;4.60;;;6.60;99.70;;;;;;5073991;28;20445;-66
2022/02/02 09:25:06;;;;;;;13.23;4.33;;;6.90;99.70;;;;;;5074301;28;20431;-66
2022/02/02 09:33:29;;;;;;;20.20;4.83;;;7.00;99.70;;;;;;5072977;28;20442;-66
2022/02/02 09:35:55;;;;;;;13.43;4.10;;;7.00;99.70;;;;;;5072696;28;20553;-67
2022/02/02 09:38:24;;;;;;;20.40;5.20;;;7.00;99.70;;;;;;5072331;28;20439;-67
2022/02/02 09:43:45;;;;;;;16.17;4.00;;;7.10;99.70;;;;;;5073626;28;20517;-66
2022/02/02 09:46:15;;;;;;;21.47;4.23;;;7.10;99.70;;;;;;5072942;28;20463;-66
2022/02/02 09:48:47;;;;;;;14.60;4.70;;;7.20;99.70;;;;;;5061228;28;20450;-66
2022/02/02 09:51:21;;;;;;;19.33;4.60;;;7.20;99.70;;;;;;5072575;28;20567;-66
2022/02/02 09:53:57;;;;;;;17.03;4.50;;;7.30;99.70;;;;;;5073187;28;20458;-65
2022/02/02 09:56:39;;;;;;;18.87;4.20;;;7.50;99.70;;;;;;5072522;28;20482;-65
2022/02/02 09:59:20;;;;;;;14.87;4.20;;;7.50;99.70;;;;;;5072518;28;20454;-65
2022/02/02 10:02:16;;;;;;;12.40;4.33;;;7.60;99.70;;;;;;5072692;28;20454;-64
2022/02/02 10:05:01;;;;;;;22.53;4.13;;;7.50;99.70;;;;;;5071965;28;20455;-65
2022/02/02 10:07:46;;;;;;;17.33;4.67;;;7.50;99.70;;;;;;5072654;28;20541;-65
2022/02/02 10:13:16;;;;;;;18.07;4.13;;;7.40;99.70;;;;;;5069809;28;20442;-64
2022/02/02 10:15:44;;;;;;;13.00;6.03;;;7.60;99.70;;;;;;5070794;28;20906;-66
2022/02/02 10:18:15;;;;;;;18.23;4.33;;;7.60;99.70;;;;;;5071579;28;20447;-65
2022/02/02 10:20:42;;;;;;;16.33;4.00;;;7.70;99.70;;;;;;5061314;28;20443;-65
2022/02/02 10:23:10;;;;;;;10.33;4.17;;;7.80;99.70;;;;;;5072212;28;20824;-66
2022/02/02 10:25:43;;;;;;;14.23;4.30;;;7.90;99.70;;;;;;5060449;28;20454;-65
2022/02/02 10:28:13;;;;;;;14.67;4.40;;;8.00;99.70;;;;;;5071754;28;20482;-65
2022/02/02 10:30:43;;;;;;;12.73;4.27;;;8.00;99.70;;;;;;5060609;28;20514;-66
2022/02/02 10:33:12;;;;;;;12.67;4.00;;;8.00;99.70;;;;;;5072053;28;20834;-65
2022/02/02 10:35:41;;;;;;;15.33;4.17;;;8.00;99.70;;;;;;5060766;28;20477;-64
2022/02/02 10:38:11;;;;;;;10.20;3.57;;;7.90;99.70;;;;;;5071511;28;20450;-66
2022/02/02 10:40:48;;;;;;;14.10;4.23;;;8.00;99.70;;;;;;5060390;28;20447;-67
2022/02/02 10:43:25;;;;;;;8.93;3.50;;;8.00;99.70;;;;;;5071834;28;20450;-66
2022/02/02 10:45:52;;;;;;;10.23;3.50;;;8.00;99.70;;;;;;5072027;28;20547;-66
2022/02/02 10:48:28;;;;;;;10.73;3.77;;;7.90;99.70;;;;;;5070537;28;21017;-66
2022/02/02 10:51:04;;;;;;;19.73;4.53;;;7.90;99.70;;;;;;5071947;28;20559;-66
2022/02/02 10:54:01;;;;;;;11.80;3.67;;;7.80;99.70;;;;;;5071732;28;20457;-65
2022/02/02 10:56:35;;;;;;;13.13;4.37;;;7.80;99.70;;;;;;5072590;28;20471;-65
2022/02/02 11:07:27;;;;;;;15.23;4.80;;;7.80;99.70;;;;;;5061107;28;20443;-65
2022/02/02 11:09:55;;;;;;;24.60;5.37;;;7.80;99.70;;;;;;5070863;28;20453;-65
2022/02/02 11:12:30;;;;;;;13.93;4.27;;;7.90;99.70;;;;;;5071411;28;20439;-65
2022/02/02 11:15:05;;;;;;;17.57;3.90;;;8.00;99.70;;;;;;5061061;28;20504;-65
2022/02/02 11:17:42;;;;;;;15.03;3.77;;;8.20;99.70;;;;;;5070664;28;21001;-64
2022/02/02 11:20:12;;;;;;;13.90;4.10;;;8.30;99.70;;;;;;5069208;28;20474;-65
2022/02/02 11:22:48;;;;;;;12.80;4.40;;;8.30;99.70;;;;;;5066826;28;20449;-66
2022/02/02 11:25:34;;;;;;;9.40;3.80;;;8.40;99.70;;;;;;5069457;28;20458;-65
2022/02/02 11:28:05;;;;;;;13.83;3.90;;;8.40;99.70;;;;;;5067801;28;20885;-66
2022/02/02 11:30:41;;;;;;;11.77;3.40;;;8.40;99.70;;;;;;5060911;28;20483;-65
2022/02/02 11:33:25;;;;;;;10.40;3.93;;;8.50;99.70;;;;;;5068761;28;20451;-65
2022/02/02 11:35:56;;;;;;;10.30;3.50;;;8.60;99.70;;;;;;5063697;28;20454;-65
2022/02/02 11:38:41;;;;;;;14.07;4.23;;;8.70;99.70;;;;;;5070185;28;20544;-65
2022/02/02 11:41:30;;;;;;;13.40;3.90;;;8.70;99.70;;;;;;5069839;28;20894;-61
2022/02/02 11:44:05;;;;;;;10.77;3.37;;;8.70;99.70;;;;;;5068349;28;20447;-65
2022/02/02 11:46:48;;;;;;;13.83;4.40;;;8.80;99.70;;;;;;5070455;28;20462;-65
2022/02/02 11:49:18;;;;;;;15.20;3.90;;;8.80;99.70;;;;;;5070966;28;20457;-64
2022/02/02 11:51:46;;;;;;;13.03;3.47;;;8.70;99.70;;;;;;5070536;28;20536;-65
2022/02/02 11:54:14;;;;;;;14.30;4.57;;;8.70;99.70;;;;;;5071852;28;20972;-65
2022/02/02 11:57:12;;;;;;;12.97;3.73;;;8.60;99.70;;;;;;5070195;28;20485;-67
2022/02/02 11:59:58;;;;;;;15.00;4.30;;;8.80;99.70;;;;;;5064044;28;20957;-65
2022/02/02 12:02:39;;;;;;;13.90;4.30;;;8.80;99.70;;;;;;5060055;28;20483;-65
2022/02/02 12:05:14;;;;;;;12.53;3.87;;;8.80;99.70;;;;;;5070414;28;20450;-65
2022/02/02 12:08:07;;;;;;;10.07;4.37;;;8.80;99.70;;;;;;5068742;28;20478;-65
2022/02/02 12:10:58;;;;;;;15.50;3.90;;;8.80;99.70;;;;;;5068178;28;20494;-63
2022/02/02 12:47:27;;;;;;;12.20;3.60;;;8.80;99.70;;;;;;5074367;28;20812;-65
2022/02/02 12:50:16;;;;;;;13.10;3.60;;;8.80;99.70;;;;;;5071635;28;20886;-66
2022/02/02 12:58:17;;;;;;;13.70;5.60;;;8.30;99.70;;;;;;5077713;28;20450;-65
2022/02/02 13:01:07;;;;;;;18.73;5.47;;;8.30;99.70;;;;;;5074466;28;20439;-66
2022/02/02 13:03:35;;;;;;;13.60;5.00;;;8.10;99.70;;;;;;5073565;28;20872;-65
2022/02/02 13:06:03;;;;;;;21.90;5.90;;;7.90;99.70;;;;;;5074100;28;20950;-66
2022/02/02 13:08:30;;;;;;;23.27;5.00;;;7.80;99.70;;;;;;5072538;28;20439;-65
2022/02/02 13:10:58;;;;;;;18.83;5.30;;;7.70;99.70;;;;;;5074376;28;20481;-66
2022/02/02 13:13:27;;;;;;;23.40;8.07;;;7.60;99.70;;;;;;5075774;28;20447;-65
2022/02/02 13:16:05;;;;;;;17.87;6.40;;;7.50;99.70;;;;;;5073507;28;20528;-66
2022/02/02 13:18:36;;;;;;;20.20;8.47;;;7.50;99.70;;;;;;5072724;28;20508;-66
2022/02/02 13:21:09;;;;;;;20.00;8.40;;;7.50;99.70;;;;;;5074545;28;20473;-65
2022/02/02 13:23:44;;;;;;;18.70;7.23;;;7.50;99.70;;;;;;5074595;28;20451;-65
2022/02/02 13:26:17;;;;;;;16.57;5.37;;;7.60;99.70;;;;;;5071973;28;20559;-66
2022/02/02 13:28:50;;;;;;;15.77;4.77;;;7.60;99.70;;;;;;5072367;28;20446;-66
2022/02/02 13:31:57;;;;;;;15.73;5.00;;;7.70;99.70;;;;;;5075869;28;20526;-66
2022/02/02 13:34:37;;;;;;;12.33;4.10;;;7.70;99.70;;;;;;5060463;28;20479;-66
2022/02/02 13:37:38;;;;;;;12.73;4.20;;;7.80;99.70;;;;;;5072652;28;20454;-66
2022/02/02 13:43:04;;;;;;;9.37;3.70;;;7.80;99.70;;;;;;5072494;28;20431;-66
2022/02/02 13:51:31;;;;;;;7.77;3.10;;;7.70;99.70;;;;;;5063047;28;21037;-67
2022/02/02 13:54:19;;;;;;;6.73;3.07;;;7.70;99.70;;;;;;5068878;28;20455;-66
2022/02/02 14:05:38;;;;;;;6.80;2.70;;;7.70;99.70;;;;;;5069061;28;20558;-65
2022/02/02 14:09:00;;;;;;;8.27;3.00;;;7.60;99.70;;;;;;5065558;28;20462;-67
2022/02/02 14:33:00;;;;;;;10.70;4.30;;;7.60;99.70;;;;;;5066835;28;20452;-66
2022/02/02 14:35:27;;;;;;;15.93;4.97;;;7.60;99.70;;;;;;5079826;28;20450;-65
2022/02/02 14:37:58;;;;;;;15.43;4.27;;;7.60;99.70;;;;;;5079136;28;20443;-66
2022/02/02 14:40:32;;;;;;;10.80;3.80;;;7.70;99.70;;;;;;5080323;28;20454;-67
2022/02/02 14:43:05;;;;;;;15.67;5.13;;;7.60;99.70;;;;;;5082039;28;20530;-68
2022/02/02 14:45:36;;;;;;;8.43;4.10;;;7.70;99.70;;;;;;5081349;28;20450;-66
2022/02/02 14:48:08;;;;;;;9.97;4.20;;;7.60;99.70;;;;;;5077911;28;20453;-67
2022/02/02 14:50:49;;;;;;;11.13;3.87;;;7.60;99.70;;;;;;5074230;28;20996;-69
2022/02/02 14:53:23;;;;;;;15.80;4.33;;;7.50;99.70;;;;;;5072048;28;20441;-70
2022/02/02 15:29:05;;;;;;;10.13;4.43;;;7.00;99.70;;;;;;5069767;28;20447;-69
2022/02/02 15:31:35;;;;;;;11.13;3.93;;;7.00;99.70;;;;;;5069572;28;20485;-69
2022/02/02 15:34:03;;;;;;;8.30;3.80;;;7.00;99.70;;;;;;5063386;28;20456;-68
2022/02/02 15:37:01;;;;;;;11.30;4.07;;;7.00;99.70;;;;;;5068103;28;20482;-68
2022/02/02 15:39:26;;;;;;;11.60;3.63;;;7.00;99.70;;;;;;5068982;28;20478;-69
2022/02/02 15:42:14;;;;;;;8.63;3.20;;;7.00;99.70;;;;;;5067310;28;20478;-69
2022/02/02 15:45:03;;;;;;;12.37;3.40;;;7.00;99.70;;;;;;5070713;28;20474;-69
2022/02/02 15:58:29;;;;;;;9.73;3.13;;;6.90;99.70;;;;;;5027561;28;20456;-68
2022/02/02 16:03:45;;;;;;;13.93;4.80;;;6.80;99.70;;;;;;5069920;28;20971;-69
2022/02/02 16:06:16;;;;;;;14.43;5.57;;;6.70;99.70;;;;;;5070849;28;20464;-68
2022/02/02 16:08:45;;;;;;;8.80;3.30;;;6.60;99.70;;;;;;5070104;28;20461;-68
2022/02/02 16:11:20;;;;;;;8.13;3.53;;;6.50;99.70;;;;;;5070294;28;20529;-68
2022/02/02 16:13:50;;;;;;;11.63;3.67;;;6.50;99.70;;;;;;5078043;28;20477;-68
2022/02/02 16:16:39;;;;;;;9.50;3.80;;;6.50;99.70;;;;;;5075285;28;20471;-69
2022/02/02 16:19:16;;;;;;;9.87;4.63;;;6.60;99.70;;;;;;5069909;28;20504;-69
2022/02/02 16:24:48;;;;;;;9.93;4.30;;;6.50;99.70;;;;;;5067989;28;20453;-69
2022/02/02 16:33:15;;;;;;;9.47;4.17;;;6.40;99.70;;;;;;5069190;28;20578;-68
2022/02/02 16:36:02;;;;;;;10.90;3.40;;;6.50;99.70;;;;;;5069229;28;20838;-67
2022/02/02 16:38:33;;;;;;;11.30;3.40;;;6.50;99.70;;;;;;5068353;28;20446;-68
2022/02/02 16:41:03;;;;;;;8.13;3.97;;;6.50;99.70;;;;;;5068494;28;20966;-68
2022/02/02 16:43:29;;;;;;;7.90;3.20;;;6.50;99.70;;;;;;5068615;28;20661;-69
2022/02/02 16:45:56;;;;;;;7.77;3.60;;;6.50;99.70;;;;;;5064165;28;20766;-68
2022/02/02 16:48:24;;;;;;;7.83;3.50;;;6.50;99.70;;;;;;5068408;28;20201;-70
2022/02/02 16:50:55;;;;;;;6.93;3.03;;;6.60;99.70;;;;;;5068690;28;20453;-68
2022/02/02 16:53:29;;;;;;;7.13;3.03;;;6.70;99.70;;;;;;5069846;28;20579;-68
2022/02/02 16:56:03;;;;;;;9.70;3.60;;;6.70;99.70;;;;;;5069198;28;21208;-66
2022/02/02 17:31:41;;;;;;;8.57;3.57;;;7.10;99.70;;;;;;5071305;28;20529;-67
2022/02/02 17:34:17;;;;;;;9.30;3.60;;;7.10;99.70;;;;;;5070236;28;20549;-68
2022/02/02 17:36:49;;;;;;;6.57;2.73;;;7.10;99.70;;;;;;5068914;28;20482;-69
2022/02/02 17:39:19;;;;;;;6.97;3.33;;;7.00;99.70;;;;;;5070488;28;20884;-68
2022/02/02 17:44:59;;;;;;;7.27;3.30;;;6.80;99.70;;;;;;5066870;28;20469;-68
2022/02/02 17:59:54;;;;;;;14.40;5.97;;;6.70;99.70;;;;;;5067395;28;20466;-68
2022/02/02 18:12:45;;;;;;;13.90;4.80;;;6.60;99.70;;;;;;5072718;28;20474;-68
2022/02/02 18:20:43;;;;;;;18.97;7.27;;;6.50;99.70;;;;;;5038690;28;20528;-67
2022/02/02 18:23:18;;;;;;;11.63;5.23;;;6.50;99.70;;;;;;5071145;28;20443;-68
2022/02/02 18:25:50;;;;;;;17.20;6.53;;;6.50;99.70;;;;;;5069990;28;20930;-68
2022/02/02 18:28:26;;;;;;;44.57;16.03;;;6.60;99.70;;;;;;5069246;28;20473;-69
2022/02/02 18:31:11;;;;;;;29.20;10.80;;;6.60;99.70;;;;;;5070775;28;20492;-69
2022/02/02 18:33:49;;;;;;;25.30;9.93;;;6.70;99.70;;;;;;5069333;28;20479;-68
2022/02/02 18:36:27;;;;;;;26.50;9.10;;;6.60;99.70;;;;;;5072345;28;20847;-66
2022/02/02 18:40:03;;;;;;;18.10;7.47;;;6.60;99.70;;;;;;5071597;28;20508;-67
2022/02/02 18:47:31;;;;;;;13.40;6.03;;;6.30;99.70;;;;;;5067906;28;20520;-68
2022/02/02 18:50:15;;;;;;;17.47;6.33;;;6.20;99.70;;;;;;5069617;28;20861;-68
2022/02/02 18:53:02;;;;;;;15.10;6.03;;;6.30;99.70;;;;;;5067629;28;20497;-67
2022/02/02 18:55:43;;;;;;;15.50;6.70;;;6.30;99.70;;;;;;5071023;28;20451;-68
2022/02/02 18:58:17;;;;;;;26.17;9.70;;;6.30;99.70;;;;;;5069523;28;20439;-68
2022/02/02 19:01:01;;;;;;;19.30;8.43;;;6.30;99.70;;;;;;5070643;28;20477;-67
2022/02/02 19:03:47;;;;;;;26.93;10.10;;;6.30;99.70;;;;;;5070141;28;20434;-68
2022/02/02 19:55:54;;;;;;;21.13;8.13;;;5.60;99.70;;;;;;5067257;28;20478;-68
2022/02/02 20:04:04;;;;;;;21.83;9.43;;;5.60;99.70;;;;;;5063585;28;20422;-67
2022/02/02 20:06:41;;;;;;;22.00;10.80;;;5.40;99.70;;;;;;5070321;28;20473;-69
2022/02/02 20:09:25;;;;;;;20.80;10.70;;;5.20;99.70;;;;;;5067455;28;20451;-67
2022/02/02 20:11:52;;;;;;;24.57;11.40;;;5.10;99.70;;;;;;5070639;28;21018;-65
2022/02/02 20:14:19;;;;;;;23.83;9.30;;;5.10;99.70;;;;;;5067372;28;20458;-65
2022/02/02 20:16:47;;;;;;;17.87;8.53;;;5.00;99.70;;;;;;5069972;28;20466;-66
2022/02/02 20:19:14;;;;;;;15.23;7.70;;;4.90;99.70;;;;;;5070683;28;20454;-65
2022/02/02 20:21:48;;;;;;;13.43;6.87;;;4.90;99.70;;;;;;5067244;28;20494;-65
2022/02/02 20:24:15;;;;;;;13.27;7.17;;;4.90;99.70;;;;;;5068030;28;20472;-65
2022/02/02 20:26:47;;;;;;;15.10;7.47;;;5.00;99.70;;;;;;5071035;28;20474;-66
2022/02/02 20:29:14;;;;;;;17.40;7.97;;;5.00;99.70;;;;;;5066411;28;20458;-65
2022/02/02 20:31:42;;;;;;;17.70;8.50;;;5.00;99.70;;;;;;5067827;28;20938;-65
2022/02/02 20:34:09;;;;;;;16.30;7.30;;;5.10;99.70;;;;;;5069438;28;21275;-66
2022/02/02 20:36:39;;;;;;;18.13;8.00;;;5.00;99.70;;;;;;5069620;28;20497;-65
2022/02/02 20:39:16;;;;;;;16.53;7.63;;;5.10;99.70;;;;;;5070074;28;20458;-67